createdAt,value
2023-01-17T00:00:42.906Z,3.09
2023-01-17T00:02:16.076Z,3.08
2023-01-17T00:04:06.956Z,3.08
2023-01-17T00:05:59.088Z,3.08
2023-01-17T00:07:49.874Z,3.08
2023-01-17T00:09:40.493Z,3.08
2023-01-17T00:11:12.665Z,3.09
2023-01-17T00:12:48.455Z,3.06
2023-01-17T00:14:20.480Z,3.08
2023-01-17T00:15:53.252Z,3.09
2023-01-17T00:17:26.215Z,3.10
2023-01-17T00:19:16.462Z,3.10
2023-01-17T00:21:07.156Z,3.10
2023-01-17T00:23:17.701Z,3.10
2023-01-17T00:25:08.549Z,3.10
2023-01-17T00:27:00.484Z,3.09
2023-01-17T00:28:37.051Z,3.09
2023-01-17T00:30:10.259Z,3.12
2023-01-17T00:31:42.336Z,3.12
2023-01-17T00:33:14.248Z,3.16
2023-01-17T00:34:46.126Z,3.19
2023-01-17T00:36:17.979Z,3.21
2023-01-17T00:37:50.237Z,3.20
2023-01-17T00:39:22.140Z,3.23
2023-01-17T00:40:54.268Z,3.24
2023-01-17T00:42:26.175Z,3.23
2023-01-17T00:44:16.687Z,3.25
2023-01-17T00:46:07.407Z,3.28
2023-01-17T00:47:58.011Z,3.31
2023-01-17T00:49:48.054Z,3.32
2023-01-17T00:51:38.692Z,3.33
2023-01-17T00:53:29.459Z,3.36
2023-01-17T00:55:20.183Z,3.36
2023-01-17T00:57:11.211Z,3.31
2023-01-17T00:59:01.873Z,3.31
2023-01-17T01:00:52.767Z,3.30
2023-01-17T01:02:43.944Z,3.31
2023-01-17T01:04:34.524Z,3.28
2023-01-17T01:06:25.021Z,3.27
2023-01-17T01:08:15.654Z,3.26
2023-01-17T01:10:06.148Z,3.24
2023-01-17T01:11:56.750Z,3.25
2023-01-17T01:13:47.816Z,3.28
2023-01-17T01:15:38.218Z,3.29
2023-01-17T01:17:28.827Z,3.30
2023-01-17T01:19:19.578Z,3.31
2023-01-17T01:21:09.985Z,3.33
2023-01-17T01:23:00.705Z,3.33
2023-01-17T01:24:51.429Z,3.34
2023-01-17T01:26:42.051Z,3.31
2023-01-17T01:28:33.002Z,3.28
2023-01-17T01:30:23.601Z,3.25
2023-01-17T01:32:14.265Z,3.25
2023-01-17T01:33:46.216Z,3.26
2023-01-17T01:35:18.506Z,3.26
2023-01-17T01:36:50.418Z,3.24
2023-01-17T01:38:23.680Z,3.26
2023-01-17T01:39:55.772Z,3.28
2023-01-17T01:41:27.764Z,3.27
2023-01-17T01:43:00.516Z,3.27
2023-01-17T01:44:42.642Z,3.26
2023-01-17T01:46:25.539Z,3.24
2023-01-17T01:48:03.957Z,3.23
2023-01-17T01:49:36.233Z,3.25
2023-01-17T01:51:10.950Z,3.26
2023-01-17T01:52:46.169Z,3.25
2023-01-17T01:54:20.645Z,3.25
2023-01-17T01:55:53.080Z,3.22
2023-01-17T01:57:26.733Z,3.22
2023-01-17T01:59:00.362Z,3.23
2023-01-17T02:00:36.314Z,3.23
2023-01-17T02:02:08.614Z,3.20
2023-01-17T02:03:41.279Z,3.18
2023-01-17T02:05:14.601Z,3.17
2023-01-17T02:06:49.069Z,3.19
2023-01-17T02:08:22.919Z,3.16
2023-01-17T02:09:54.891Z,3.17
2023-01-17T02:11:27.122Z,3.16
2023-01-17T02:13:00.124Z,3.16
2023-01-17T02:14:32.314Z,3.18
2023-01-17T02:16:19.782Z,3.19
2023-01-17T02:17:51.814Z,3.20
2023-01-17T02:19:42.569Z,3.21
2023-01-17T02:21:22.421Z,3.21
2023-01-17T02:22:57.438Z,3.19
2023-01-17T02:24:51.543Z,3.17
2023-01-17T02:26:35.852Z,3.17
2023-01-17T02:28:28.379Z,3.17
2023-01-17T02:30:12.604Z,3.17
2023-01-17T02:31:49.745Z,3.17
2023-01-17T02:33:24.850Z,3.18
2023-01-17T02:35:02.090Z,3.21
2023-01-17T02:36:56.462Z,3.22
2023-01-17T02:38:40.097Z,3.24
2023-01-17T02:40:25.156Z,3.22
2023-01-17T02:42:06.354Z,3.21
2023-01-17T02:43:39.580Z,3.23
2023-01-17T02:45:18.031Z,3.26
2023-01-17T02:46:54.487Z,3.24
2023-01-17T02:48:28.090Z,3.18
2023-01-17T02:50:05.696Z,3.18
2023-01-17T02:51:50.333Z,3.22
2023-01-17T02:53:30.095Z,3.21
2023-01-17T02:55:14.813Z,3.21
2023-01-17T02:56:52.936Z,3.21
2023-01-17T02:58:31.126Z,3.24
2023-01-17T03:00:27.189Z,3.30
2023-01-17T03:02:17.250Z,3.28
2023-01-17T03:03:56.029Z,3.27
2023-01-17T03:05:30.582Z,3.29
2023-01-17T03:07:04.420Z,3.29
2023-01-17T03:08:36.502Z,3.33
2023-01-17T03:10:09.939Z,3.33
2023-01-17T03:11:42.367Z,3.35
2023-01-17T03:13:14.601Z,3.37
2023-01-17T03:14:46.639Z,3.39
2023-01-17T03:16:19.805Z,3.41
2023-01-17T03:17:53.230Z,3.45
2023-01-17T03:19:25.344Z,3.46
2023-01-17T03:20:57.298Z,3.49
2023-01-17T03:22:29.207Z,3.49
2023-01-17T03:24:01.259Z,3.51
2023-01-17T03:25:33.715Z,3.51
2023-01-17T03:27:05.654Z,3.50
2023-01-17T03:28:37.632Z,3.51
2023-01-17T03:30:09.886Z,3.51
2023-01-17T03:31:42.656Z,3.51
2023-01-17T03:33:16.324Z,3.51
2023-01-17T03:34:48.287Z,3.50
2023-01-17T03:36:20.537Z,3.50
2023-01-17T03:37:52.769Z,3.49
2023-01-17T03:39:24.806Z,3.50
2023-01-17T03:40:56.762Z,3.49
2023-01-17T03:42:28.829Z,3.49
2023-01-17T03:44:01.052Z,3.49
2023-01-17T03:45:33.019Z,3.50
2023-01-17T03:47:05.053Z,3.47
2023-01-17T03:48:37.022Z,3.51
2023-01-17T03:50:09.511Z,3.50
2023-01-17T03:51:41.463Z,3.49
2023-01-17T03:53:13.448Z,3.48
2023-01-17T03:54:45.351Z,3.45
2023-01-17T03:56:17.370Z,3.46
2023-01-17T03:57:49.350Z,3.45
2023-01-17T03:59:21.522Z,3.44
2023-01-17T04:00:53.521Z,3.46
2023-01-17T04:02:26.020Z,3.45
2023-01-17T04:03:58.034Z,3.46
2023-01-17T04:05:30.331Z,3.45
2023-01-17T04:07:02.325Z,3.47
2023-01-17T04:08:34.512Z,3.50
2023-01-17T04:10:06.858Z,3.52
2023-01-17T04:11:38.997Z,3.51
2023-01-17T04:13:10.971Z,3.50
2023-01-17T04:14:42.984Z,3.50
2023-01-17T04:16:17.502Z,3.51
2023-01-17T04:17:49.700Z,3.54
2023-01-17T04:19:21.951Z,3.51
2023-01-17T04:20:53.931Z,3.50
2023-01-17T04:22:25.959Z,3.52
2023-01-17T04:23:58.050Z,3.48
2023-01-17T04:25:31.043Z,3.51
2023-01-17T04:27:04.646Z,3.51
2023-01-17T04:28:36.584Z,3.49
2023-01-17T04:30:09.011Z,3.49
2023-01-17T04:31:41.021Z,3.49
2023-01-17T04:33:13.340Z,3.56
2023-01-17T04:34:45.263Z,3.52
2023-01-17T04:36:18.653Z,3.50
2023-01-17T04:37:50.881Z,3.51
2023-01-17T04:39:22.852Z,3.49
2023-01-17T04:40:54.733Z,3.48
2023-01-17T04:42:26.705Z,3.47
2023-01-17T04:43:58.655Z,3.48
2023-01-17T04:45:30.757Z,3.49
2023-01-17T04:47:03.381Z,3.51
2023-01-17T04:48:35.538Z,3.51
2023-01-17T04:50:08.045Z,3.49
2023-01-17T04:51:40.131Z,3.49
2023-01-17T04:53:12.088Z,3.45
2023-01-17T04:54:44.113Z,3.45
2023-01-17T04:56:16.081Z,3.44
2023-01-17T04:57:48.328Z,3.44
2023-01-17T04:59:20.294Z,3.43
2023-01-17T05:00:52.781Z,3.42
2023-01-17T05:02:24.850Z,3.42
2023-01-17T05:03:56.803Z,3.44
2023-01-17T05:05:28.759Z,3.39
2023-01-17T05:07:00.764Z,3.41
2023-01-17T05:08:32.720Z,3.38
2023-01-17T05:10:05.071Z,3.38
2023-01-17T05:11:37.087Z,3.38
2023-01-17T05:13:09.321Z,3.39
2023-01-17T05:14:41.278Z,3.39
2023-01-17T05:16:13.256Z,3.40
2023-01-17T05:17:47.699Z,3.40
2023-01-17T05:19:21.037Z,3.38
2023-01-17T05:20:53.119Z,3.38
2023-01-17T05:22:25.164Z,3.38
2023-01-17T05:23:57.160Z,3.39
2023-01-17T05:25:29.896Z,3.41
2023-01-17T05:27:03.327Z,3.39
2023-01-17T05:28:35.471Z,3.39
2023-01-17T05:30:07.676Z,3.39
2023-01-17T05:31:39.694Z,3.42
2023-01-17T05:33:11.669Z,3.40
2023-01-17T05:34:43.783Z,3.43
2023-01-17T05:36:15.795Z,3.40
2023-01-17T05:37:49.365Z,3.40
2023-01-17T05:39:21.342Z,3.40
2023-01-17T05:40:53.258Z,3.38
2023-01-17T05:42:25.164Z,3.36
2023-01-17T05:43:57.160Z,3.35
2023-01-17T05:45:29.895Z,3.33
2023-01-17T05:47:01.931Z,3.31
2023-01-17T05:48:33.910Z,3.29
2023-01-17T05:50:06.147Z,3.28
2023-01-17T05:51:39.672Z,3.26
2023-01-17T05:53:13.278Z,3.25
2023-01-17T05:54:45.280Z,3.22
2023-01-17T05:56:17.293Z,3.22
2023-01-17T05:57:49.791Z,3.19
2023-01-17T05:59:35.983Z,3.20
2023-01-17T06:01:08.890Z,3.21
2023-01-17T06:02:41.349Z,3.18
2023-01-17T06:04:13.363Z,3.17
2023-01-17T06:05:45.355Z,3.15
2023-01-17T06:07:17.250Z,3.14
2023-01-17T06:08:49.256Z,3.12
2023-01-17T06:10:22.297Z,3.12
2023-01-17T06:11:54.323Z,3.10
2023-01-17T06:13:26.562Z,3.11
2023-01-17T06:14:59.063Z,3.12
2023-01-17T06:16:30.985Z,3.13
2023-01-17T06:18:09.651Z,3.12
2023-01-17T06:19:41.621Z,3.11
2023-01-17T06:21:13.885Z,3.11
2023-01-17T06:22:45.781Z,3.10
2023-01-17T06:24:17.949Z,3.08
2023-01-17T06:25:49.949Z,3.08
2023-01-17T06:27:22.016Z,3.09
2023-01-17T06:28:53.947Z,3.05
2023-01-17T06:30:26.028Z,3.03
2023-01-17T06:31:59.648Z,3.01
2023-01-17T06:33:32.828Z,2.98
2023-01-17T06:35:04.945Z,2.95
2023-01-17T06:36:36.873Z,2.92
2023-01-17T06:38:10.076Z,2.88
2023-01-17T06:39:42.091Z,2.85
2023-01-17T06:41:14.025Z,2.83
2023-01-17T06:42:46.113Z,2.81
2023-01-17T06:44:18.047Z,2.79
2023-01-17T06:45:51.364Z,2.78
2023-01-17T06:47:24.054Z,2.77
2023-01-17T06:48:56.062Z,2.77
2023-01-17T06:50:28.285Z,2.77
2023-01-17T06:52:00.436Z,2.77
2023-01-17T06:53:32.419Z,2.78
2023-01-17T06:55:04.659Z,2.78
2023-01-17T06:56:36.964Z,2.80
2023-01-17T06:58:09.468Z,2.83
2023-01-17T06:59:41.571Z,2.85
2023-01-17T07:01:13.795Z,2.88
2023-01-17T07:02:49.270Z,2.92
2023-01-17T07:04:21.331Z,2.95
2023-01-17T07:05:53.396Z,3.00
2023-01-17T07:07:25.400Z,3.04
2023-01-17T07:08:57.330Z,3.07
2023-01-17T07:10:29.339Z,3.11
2023-01-17T07:12:02.077Z,3.15
2023-01-17T07:13:36.332Z,3.19
2023-01-17T07:15:08.813Z,3.23
2023-01-17T07:16:43.707Z,3.25
2023-01-17T07:18:20.556Z,3.27
2023-01-17T07:19:52.728Z,3.30
2023-01-17T07:21:24.805Z,3.33
2023-01-17T07:22:56.826Z,3.32
2023-01-17T07:24:28.788Z,3.30
2023-01-17T07:26:01.024Z,3.27
2023-01-17T07:27:33.696Z,3.26
2023-01-17T07:29:05.798Z,3.24
2023-01-17T07:30:37.803Z,3.22
2023-01-17T07:32:11.015Z,3.21
2023-01-17T07:33:43.037Z,3.21
2023-01-17T07:35:15.067Z,3.24
2023-01-17T07:36:48.636Z,3.29
2023-01-17T07:38:20.577Z,3.35
2023-01-17T07:39:52.865Z,3.43
2023-01-17T07:41:24.947Z,3.50
2023-01-17T07:43:14.224Z,3.58
2023-01-17T07:44:47.064Z,3.69
2023-01-17T07:46:19.140Z,3.79
2023-01-17T07:47:51.318Z,3.89
2023-01-17T07:49:23.275Z,3.98
2023-01-17T07:50:56.282Z,4.06
2023-01-17T07:52:28.417Z,4.15
2023-01-17T07:54:00.620Z,4.23
2023-01-17T07:55:32.755Z,4.30
2023-01-17T07:57:05.045Z,4.34
2023-01-17T07:58:37.091Z,4.41
2023-01-17T08:00:09.495Z,4.48
2023-01-17T08:01:47.230Z,4.57
2023-01-17T08:03:19.390Z,4.64
2023-01-17T08:04:51.409Z,4.74
2023-01-17T08:06:25.217Z,4.80
2023-01-17T08:07:57.112Z,4.87
2023-01-17T08:09:29.253Z,4.95
2023-01-17T08:11:01.213Z,5.04
2023-01-17T08:12:34.156Z,5.10
2023-01-17T08:14:06.169Z,5.15
2023-01-17T08:15:38.187Z,5.21
2023-01-17T08:17:14.613Z,5.23
2023-01-17T08:18:46.689Z,5.28
2023-01-17T08:20:19.263Z,5.31
2023-01-17T08:21:51.240Z,5.31
2023-01-17T08:23:23.420Z,5.31
2023-01-17T08:24:55.494Z,5.32
2023-01-17T08:26:27.439Z,5.31
2023-01-17T08:27:59.511Z,5.28
2023-01-17T08:29:31.489Z,5.25
2023-01-17T08:31:07.809Z,5.25
2023-01-17T08:32:40.940Z,5.25
2023-01-17T08:34:14.335Z,5.26
2023-01-17T08:35:55.525Z,5.26
2023-01-17T08:37:27.465Z,5.28
2023-01-17T08:38:59.426Z,5.32
2023-01-17T08:40:32.682Z,5.35
2023-01-17T08:42:04.847Z,5.36
2023-01-17T08:43:36.875Z,5.41
2023-01-17T08:45:09.583Z,5.47
2023-01-17T08:46:41.865Z,5.51
2023-01-17T08:48:14.425Z,5.56
2023-01-17T08:49:46.538Z,5.59
2023-01-17T08:51:25.023Z,5.61
2023-01-17T08:53:03.431Z,5.65
2023-01-17T08:54:35.467Z,5.69
2023-01-17T08:56:07.541Z,5.76
2023-01-17T08:57:39.546Z,5.84
2023-01-17T08:59:11.862Z,5.94
2023-01-17T09:00:43.880Z,6.06
2023-01-17T09:02:17.024Z,6.21
2023-01-17T09:03:49.385Z,6.40
2023-01-17T09:05:21.393Z,6.60
2023-01-17T09:06:53.323Z,6.78
2023-01-17T09:08:25.872Z,7.00
2023-01-17T09:09:57.922Z,7.22
2023-01-17T09:11:29.967Z,7.44
2023-01-17T09:13:02.005Z,7.61
2023-01-17T09:14:34.592Z,7.75
2023-01-17T09:16:06.941Z,7.85
2023-01-17T09:17:38.960Z,7.86
2023-01-17T09:19:10.959Z,7.85
2023-01-17T09:20:43.145Z,7.85
2023-01-17T09:22:15.218Z,7.83
2023-01-17T09:23:47.329Z,7.81
2023-01-17T09:25:19.423Z,7.76
2023-01-17T09:26:51.511Z,7.76
2023-01-17T09:28:23.996Z,7.78
2023-01-17T09:29:55.998Z,7.83
2023-01-17T09:31:28.281Z,7.88
2023-01-17T09:33:00.299Z,7.95
2023-01-17T09:34:32.287Z,7.98
2023-01-17T09:36:05.562Z,7.98
2023-01-17T09:37:37.564Z,7.99
2023-01-17T09:39:10.618Z,7.98
2023-01-17T09:40:46.774Z,7.96
2023-01-17T09:42:26.229Z,7.96
2023-01-17T09:44:01.368Z,7.94
2023-01-17T09:45:34.495Z,7.95
2023-01-17T09:47:25.135Z,7.94
2023-01-17T09:49:07.388Z,7.97
2023-01-17T09:50:44.364Z,8.00
2023-01-17T09:52:18.565Z,8.08
2023-01-17T09:53:51.240Z,8.20
2023-01-17T09:55:23.320Z,8.30
2023-01-17T09:57:34.793Z,8.40
2023-01-17T09:59:33.049Z,8.48
2023-01-17T10:01:24.978Z,8.55
2023-01-17T10:03:17.679Z,8.64
2023-01-17T10:04:52.395Z,8.80
2023-01-17T10:06:33.528Z,8.96
2023-01-17T10:08:24.721Z,9.16
2023-01-17T10:09:56.701Z,9.36
2023-01-17T10:11:38.812Z,9.49
2023-01-17T10:13:10.803Z,9.60
2023-01-17T10:14:48.962Z,9.61
2023-01-17T10:16:24.822Z,9.57
2023-01-17T10:17:56.885Z,9.51
2023-01-17T10:19:48.059Z,9.46
2023-01-17T10:21:31.102Z,9.42
2023-01-17T10:23:25.292Z,9.33
2023-01-17T10:25:20.514Z,9.24
2023-01-17T10:26:56.435Z,9.13
2023-01-17T10:28:46.837Z,9.01
2023-01-17T10:30:30.125Z,8.84
2023-01-17T10:32:02.974Z,8.69
2023-01-17T10:33:40.540Z,8.58
2023-01-17T10:35:24.938Z,8.44
2023-01-17T10:37:40.114Z,8.32
2023-01-17T10:39:23.217Z,8.15
2023-01-17T10:41:18.358Z,7.99
2023-01-17T10:43:13.740Z,7.84
2023-01-17T10:45:11.564Z,7.67
2023-01-17T10:46:47.342Z,7.51
2023-01-17T10:48:33.807Z,7.42
2023-01-17T10:50:06.038Z,7.40
2023-01-17T10:52:00.196Z,7.37
2023-01-17T10:53:35.550Z,7.38
2023-01-17T10:55:14.074Z,7.37
2023-01-17T10:56:46.186Z,7.40
2023-01-17T10:58:18.096Z,7.45
2023-01-17T10:59:50.410Z,7.51
2023-01-17T11:01:22.892Z,7.58
2023-01-17T11:02:55.198Z,7.67
2023-01-17T11:04:35.142Z,7.80
2023-01-17T11:06:19.491Z,7.92
2023-01-17T11:08:02.017Z,8.04
2023-01-17T11:09:38.295Z,8.21
2023-01-17T11:11:10.291Z,8.35
2023-01-17T11:12:47.225Z,8.47
2023-01-17T11:14:24.840Z,8.56
2023-01-17T11:15:58.833Z,8.63
2023-01-17T11:17:31.882Z,8.70
2023-01-17T11:19:08.757Z,8.77
2023-01-17T11:20:41.056Z,8.76
2023-01-17T11:22:15.045Z,8.72
2023-01-17T11:23:49.267Z,8.70
2023-01-17T11:25:22.458Z,8.63
2023-01-17T11:26:54.448Z,8.61
2023-01-17T11:28:33.505Z,8.56
2023-01-17T11:30:05.611Z,8.49
2023-01-17T11:31:37.753Z,8.53
2023-01-17T11:33:26.682Z,8.64
2023-01-17T11:35:18.048Z,8.70
2023-01-17T11:36:52.647Z,8.75
2023-01-17T11:38:24.867Z,8.76
2023-01-17T11:40:09.755Z,8.70
2023-01-17T11:41:42.015Z,8.64
2023-01-17T11:43:18.829Z,8.60
2023-01-17T11:44:50.841Z,8.61
2023-01-17T11:46:24.230Z,8.70
2023-01-17T11:48:08.551Z,8.80
2023-01-17T11:49:41.764Z,8.94
2023-01-17T11:51:22.634Z,9.11
2023-01-17T11:53:04.483Z,9.22
2023-01-17T11:54:42.637Z,9.28
2023-01-17T11:56:19.817Z,9.35
2023-01-17T11:57:51.940Z,9.42
2023-01-17T11:59:35.139Z,9.44
2023-01-17T12:01:16.895Z,9.52
2023-01-17T12:03:01.140Z,9.64
2023-01-17T12:04:52.080Z,9.77
2023-01-17T12:06:27.168Z,9.90
2023-01-17T12:08:08.625Z,9.96
2023-01-17T12:09:51.062Z,10.01
2023-01-17T12:11:32.209Z,10.04
2023-01-17T12:13:29.190Z,10.09
2023-01-17T12:15:10.164Z,10.20
2023-01-17T12:16:45.210Z,10.29
2023-01-17T12:18:36.259Z,10.38
2023-01-17T12:20:21.910Z,10.39
2023-01-17T12:22:06.190Z,10.36
2023-01-17T12:23:41.952Z,10.30
2023-01-17T12:25:22.792Z,10.21
2023-01-17T12:27:00.423Z,10.11
2023-01-17T12:28:32.433Z,10.11
2023-01-17T12:30:10.549Z,10.07
2023-01-17T12:31:48.828Z,10.07
2023-01-17T12:33:39.276Z,10.10
2023-01-17T12:35:13.999Z,10.08
2023-01-17T12:36:49.447Z,10.05
2023-01-17T12:38:32.582Z,9.96
2023-01-17T12:40:07.911Z,9.85
2023-01-17T12:41:58.540Z,9.81
2023-01-17T12:43:38.653Z,9.77
2023-01-17T12:45:15.216Z,9.70
2023-01-17T12:46:50.225Z,9.64
2023-01-17T12:48:23.586Z,9.60
2023-01-17T12:50:05.376Z,9.54
2023-01-17T12:51:39.283Z,9.44
2023-01-17T12:53:14.334Z,9.37
2023-01-17T12:54:49.662Z,9.27
2023-01-17T12:56:25.462Z,9.21
2023-01-17T12:58:00.260Z,9.15
2023-01-17T12:59:37.954Z,9.09
2023-01-17T13:01:16.014Z,9.04
2023-01-17T13:03:08.580Z,9.00
2023-01-17T13:04:58.874Z,8.96
2023-01-17T13:06:46.342Z,8.87
2023-01-17T13:08:19.813Z,8.69
2023-01-17T13:09:55.582Z,8.57
2023-01-17T13:11:33.596Z,8.43
2023-01-17T13:13:13.461Z,8.36
2023-01-17T13:14:46.383Z,8.32
2023-01-17T13:16:21.876Z,8.28
2023-01-17T13:18:00.909Z,8.27
2023-01-17T13:19:51.589Z,8.27
2023-01-17T13:21:31.307Z,8.23
2023-01-17T13:23:29.596Z,8.20
2023-01-17T13:25:12.942Z,8.16
2023-01-17T13:26:44.886Z,8.18
2023-01-17T13:28:27.739Z,8.13
2023-01-17T13:30:05.839Z,8.10
2023-01-17T13:31:49.183Z,8.05
2023-01-17T13:33:36.547Z,8.02
2023-01-17T13:35:14.637Z,7.97
2023-01-17T13:36:52.398Z,7.91
2023-01-17T13:38:32.092Z,7.88
2023-01-17T13:40:22.751Z,7.87
2023-01-17T13:42:02.608Z,7.82
2023-01-17T13:43:36.438Z,7.75
2023-01-17T13:45:09.396Z,7.70
2023-01-17T13:47:04.147Z,7.66
2023-01-17T13:48:38.373Z,7.60
2023-01-17T13:50:29.232Z,7.59
2023-01-17T13:52:01.232Z,7.45
2023-01-17T13:53:36.865Z,7.39
2023-01-17T13:55:09.125Z,7.36
2023-01-17T13:56:41.083Z,7.28
2023-01-17T13:58:33.357Z,7.21
2023-01-17T14:00:21.410Z,7.18
2023-01-17T14:01:54.243Z,7.17
2023-01-17T14:03:52.727Z,7.15
2023-01-17T14:05:30.546Z,7.11
2023-01-17T14:07:16.902Z,7.07
2023-01-17T14:08:48.852Z,7.05
2023-01-17T14:10:24.719Z,6.99
2023-01-17T14:11:58.323Z,6.95
2023-01-17T14:13:37.323Z,6.93
2023-01-17T14:15:18.863Z,6.88
2023-01-17T14:16:50.881Z,6.85
2023-01-17T14:18:42.760Z,6.84
2023-01-17T14:20:16.424Z,6.77
2023-01-17T14:21:48.475Z,6.73
2023-01-17T14:23:22.998Z,6.72
2023-01-17T14:25:15.167Z,6.69
2023-01-17T14:27:14.246Z,6.67
2023-01-17T14:28:46.363Z,6.69
2023-01-17T14:30:29.744Z,6.64
2023-01-17T14:32:02.740Z,6.60
2023-01-17T14:33:36.161Z,6.61
2023-01-17T14:35:20.483Z,6.59
2023-01-17T14:37:03.519Z,6.59
2023-01-17T14:38:41.268Z,6.57
2023-01-17T14:40:17.987Z,6.57
2023-01-17T14:41:50.148Z,6.53
2023-01-17T14:43:23.240Z,6.52
2023-01-17T14:45:03.425Z,6.47
2023-01-17T14:46:36.133Z,6.45
2023-01-17T14:48:23.467Z,6.41
2023-01-17T14:50:12.159Z,6.39
2023-01-17T14:51:44.103Z,6.39
2023-01-17T14:53:17.765Z,6.39
2023-01-17T14:54:52.937Z,6.35
2023-01-17T14:56:28.340Z,6.32
2023-01-17T14:58:00.411Z,6.30
2023-01-17T14:59:32.837Z,6.29
2023-01-17T15:01:11.236Z,6.30
2023-01-17T15:02:43.840Z,6.32
2023-01-17T15:04:26.907Z,6.29
2023-01-17T15:06:05.025Z,6.27
2023-01-17T15:07:37.190Z,6.25
2023-01-17T15:09:29.445Z,6.25
2023-01-17T15:11:09.546Z,6.25
2023-01-17T15:12:46.654Z,6.25
2023-01-17T15:14:27.937Z,6.23
2023-01-17T15:16:04.411Z,6.22
2023-01-17T15:17:36.439Z,6.21
2023-01-17T15:19:12.641Z,6.22
2023-01-17T15:20:50.195Z,6.21
2023-01-17T15:22:23.651Z,6.21
2023-01-17T15:23:57.310Z,6.18
2023-01-17T15:25:29.364Z,6.20
2023-01-17T15:27:01.848Z,6.21
2023-01-17T15:28:34.716Z,6.21
2023-01-17T15:30:07.547Z,6.21
2023-01-17T15:31:47.341Z,6.20
2023-01-17T15:33:21.140Z,6.22
2023-01-17T15:34:53.960Z,6.20
2023-01-17T15:36:33.234Z,6.21
2023-01-17T15:38:05.751Z,6.20
2023-01-17T15:39:39.040Z,6.20
2023-01-17T15:41:13.632Z,6.21
2023-01-17T15:42:56.622Z,6.20
2023-01-17T15:44:48.068Z,6.21
2023-01-17T15:46:25.737Z,6.22
2023-01-17T15:47:59.305Z,6.23
2023-01-17T15:49:31.554Z,6.22
2023-01-17T15:51:04.656Z,6.21
2023-01-17T15:52:47.054Z,6.21
2023-01-17T15:54:36.152Z,6.16
2023-01-17T15:56:30.122Z,6.15
2023-01-17T15:58:02.741Z,6.16
2023-01-17T15:59:34.827Z,6.16
2023-01-17T16:01:14.351Z,6.18
2023-01-17T16:02:47.454Z,6.17
2023-01-17T16:04:26.822Z,6.16
2023-01-17T16:06:00.604Z,6.19
2023-01-17T16:07:34.158Z,6.19
2023-01-17T16:09:19.085Z,6.17
2023-01-17T16:10:53.670Z,6.14
2023-01-17T16:12:25.703Z,6.11
2023-01-17T16:13:57.684Z,6.06
2023-01-17T16:15:30.253Z,6.05
2023-01-17T16:17:03.898Z,6.04
2023-01-17T16:18:35.926Z,6.01
2023-01-17T16:20:12.054Z,5.95
2023-01-17T16:21:45.196Z,5.92
2023-01-17T16:23:17.307Z,5.86
2023-01-17T16:24:49.339Z,5.78
2023-01-17T16:26:21.612Z,5.72
2023-01-17T16:27:54.118Z,5.61
2023-01-17T16:29:26.203Z,5.59
2023-01-17T16:30:58.232Z,5.52
2023-01-17T16:32:32.239Z,5.43
2023-01-17T16:34:09.742Z,5.38
2023-01-17T16:35:43.036Z,5.20
2023-01-17T16:37:15.252Z,5.07
2023-01-17T16:38:49.564Z,4.98
2023-01-17T16:40:23.363Z,4.91
2023-01-17T16:42:02.621Z,4.87
2023-01-17T16:43:34.684Z,4.80
2023-01-17T16:45:07.032Z,4.78
2023-01-17T16:46:39.209Z,4.76
2023-01-17T16:48:12.670Z,4.73
2023-01-17T16:49:44.856Z,4.64
2023-01-17T16:51:17.288Z,4.60
2023-01-17T16:52:52.511Z,4.59
2023-01-17T16:54:25.033Z,4.59
2023-01-17T16:55:58.417Z,4.56
2023-01-17T16:57:30.331Z,4.51
2023-01-17T16:59:02.444Z,4.52
2023-01-17T17:00:34.369Z,4.51
2023-01-17T17:02:06.491Z,4.52
2023-01-17T17:03:38.552Z,4.47
2023-01-17T17:05:10.944Z,4.47
2023-01-17T17:06:43.182Z,4.51
2023-01-17T17:08:15.489Z,4.47
2023-01-17T17:09:47.743Z,4.45
2023-01-17T17:11:21.621Z,4.41
2023-01-17T17:12:53.994Z,4.43
2023-01-17T17:14:26.253Z,4.38
2023-01-17T17:15:58.232Z,4.40
2023-01-17T17:17:30.261Z,4.35
2023-01-17T17:19:03.762Z,4.35
2023-01-17T17:20:35.780Z,4.31
2023-01-17T17:22:07.770Z,4.30
2023-01-17T17:23:39.838Z,4.30
2023-01-17T17:25:12.199Z,4.27
2023-01-17T17:26:45.021Z,4.22
2023-01-17T17:28:17.020Z,4.20
2023-01-17T17:29:48.999Z,4.21
2023-01-17T17:31:21.103Z,4.19
2023-01-17T17:32:53.154Z,4.18
2023-01-17T17:34:27.757Z,4.17
2023-01-17T17:36:03.588Z,4.18
2023-01-17T17:37:35.671Z,4.20
2023-01-17T17:39:09.377Z,4.14
2023-01-17T17:40:41.355Z,4.11
2023-01-17T17:42:13.638Z,4.14
2023-01-17T17:43:45.669Z,4.10
2023-01-17T17:45:17.750Z,4.11
2023-01-17T17:46:51.411Z,4.08
2023-01-17T17:48:23.423Z,4.05
2023-01-17T17:49:55.916Z,4.06
2023-01-17T17:51:29.311Z,4.07
2023-01-17T17:53:01.249Z,4.05
2023-01-17T17:54:33.291Z,4.06
2023-01-17T17:56:06.436Z,4.06
2023-01-17T17:57:38.628Z,4.06
2023-01-17T17:59:12.243Z,4.06
2023-01-17T18:00:44.400Z,4.07
2023-01-17T18:02:16.786Z,4.04
2023-01-17T18:03:48.882Z,4.02
2023-01-17T18:05:20.903Z,4.02
2023-01-17T18:06:55.466Z,4.01
2023-01-17T18:08:32.672Z,3.99
2023-01-17T18:10:05.043Z,3.99
2023-01-17T18:11:38.369Z,3.99
2023-01-17T18:13:10.423Z,3.97
2023-01-17T18:14:42.417Z,3.91
2023-01-17T18:16:15.482Z,3.90
2023-01-17T18:17:48.602Z,3.93
2023-01-17T18:19:22.139Z,3.92
2023-01-17T18:20:54.122Z,3.94
2023-01-17T18:22:26.100Z,3.91
2023-01-17T18:23:59.900Z,3.90
2023-01-17T18:25:36.392Z,3.88
2023-01-17T18:27:10.451Z,3.84
2023-01-17T18:28:43.401Z,3.83
2023-01-17T18:30:15.536Z,3.87
2023-01-17T18:31:50.107Z,3.87
2023-01-17T18:33:22.274Z,3.89
2023-01-17T18:34:54.383Z,3.89
2023-01-17T18:36:28.741Z,3.89
2023-01-17T18:38:00.714Z,3.90
2023-01-17T18:39:32.597Z,3.88
2023-01-17T18:41:05.663Z,3.88
2023-01-17T18:42:37.675Z,3.86
2023-01-17T18:44:10.294Z,3.87
2023-01-17T18:45:42.371Z,3.86
2023-01-17T18:47:14.407Z,3.86
2023-01-17T18:48:46.444Z,3.85
2023-01-17T18:50:18.428Z,3.87
2023-01-17T18:51:51.146Z,3.87
2023-01-17T18:53:23.812Z,3.88
2023-01-17T18:54:55.783Z,3.87
2023-01-17T18:56:28.927Z,3.87
2023-01-17T18:58:00.895Z,3.83
2023-01-17T18:59:32.870Z,3.86
2023-01-17T19:01:08.229Z,3.87
2023-01-17T19:02:40.327Z,3.85
2023-01-17T19:04:13.437Z,3.82
2023-01-17T19:05:48.529Z,3.83
2023-01-17T19:07:21.903Z,3.82
2023-01-17T19:08:54.035Z,3.84
2023-01-17T19:10:26.034Z,3.82
2023-01-17T19:12:00.067Z,3.83
2023-01-17T19:13:35.622Z,3.86
2023-01-17T19:15:07.957Z,3.83
2023-01-17T19:16:41.647Z,3.85
2023-01-17T19:18:13.729Z,3.83
2023-01-17T19:19:45.671Z,3.85
2023-01-17T19:21:18.962Z,3.80
2023-01-17T19:22:51.270Z,3.81
2023-01-17T19:24:23.383Z,3.80
2023-01-17T19:25:55.505Z,3.79
2023-01-17T19:27:27.629Z,3.81
2023-01-17T19:29:00.347Z,3.82
2023-01-17T19:30:34.406Z,3.80
2023-01-17T19:32:07.475Z,3.81
2023-01-17T19:33:40.790Z,3.82
2023-01-17T19:35:13.962Z,3.82
2023-01-17T19:36:46.496Z,3.83
2023-01-17T19:38:18.472Z,3.82
2023-01-17T19:39:50.652Z,3.82
2023-01-17T19:41:24.176Z,3.79
2023-01-17T19:42:56.330Z,3.76
2023-01-17T19:44:28.394Z,3.75
2023-01-17T19:46:00.849Z,3.72
2023-01-17T19:47:32.940Z,3.76
2023-01-17T19:49:06.486Z,3.76
2023-01-17T19:50:38.509Z,3.76
2023-01-17T19:52:10.515Z,3.76
2023-01-17T19:53:42.678Z,3.75
2023-01-17T19:55:14.697Z,3.74
2023-01-17T19:56:46.738Z,3.74
2023-01-17T19:58:18.792Z,3.74
2023-01-17T19:59:51.079Z,3.72
2023-01-17T20:01:25.278Z,3.69
2023-01-17T20:02:57.505Z,3.65
2023-01-17T20:04:29.596Z,3.64
2023-01-17T20:06:01.589Z,3.63
2023-01-17T20:07:34.095Z,3.61
2023-01-17T20:09:06.241Z,3.55
2023-01-17T20:10:38.256Z,3.51
2023-01-17T20:12:11.105Z,3.52
2023-01-17T20:13:43.252Z,3.50
2023-01-17T20:15:15.319Z,3.52
2023-01-17T20:16:49.589Z,3.48
2023-01-17T20:18:22.571Z,3.44
2023-01-17T20:19:54.553Z,3.43
2023-01-17T20:21:27.143Z,3.46
2023-01-17T20:23:01.320Z,3.44
2023-01-17T20:24:33.464Z,3.43
2023-01-17T20:26:06.053Z,3.42
2023-01-17T20:27:38.767Z,3.40
2023-01-17T20:29:12.469Z,3.40
2023-01-17T20:30:45.662Z,3.42
2023-01-17T20:32:18.152Z,3.39
2023-01-17T20:33:50.863Z,3.37
2023-01-17T20:35:22.936Z,3.37
2023-01-17T20:36:57.533Z,3.33
2023-01-17T20:38:30.098Z,3.33
2023-01-17T20:40:02.163Z,3.32
2023-01-17T20:41:36.366Z,3.33
2023-01-17T20:43:10.052Z,3.31
2023-01-17T20:44:42.146Z,3.27
2023-01-17T20:46:14.747Z,3.25
2023-01-17T20:47:46.818Z,3.25
2023-01-17T20:49:19.543Z,3.26
2023-01-17T20:50:51.691Z,3.27
2023-01-17T20:52:23.726Z,3.23
2023-01-17T20:54:01.737Z,3.23
2023-01-17T20:55:33.727Z,3.27
2023-01-17T20:57:06.469Z,3.20
2023-01-17T20:58:38.696Z,3.17
2023-01-17T21:00:11.025Z,3.16
2023-01-17T21:01:43.946Z,3.18
2023-01-17T21:03:16.108Z,3.18
2023-01-17T21:04:48.086Z,3.18
2023-01-17T21:06:21.645Z,3.17
2023-01-17T21:07:53.760Z,3.18
2023-01-17T21:09:25.865Z,3.18
2023-01-17T21:10:57.879Z,3.15
2023-01-17T21:12:31.163Z,3.17
2023-01-17T21:14:04.575Z,3.14
2023-01-17T21:15:42.010Z,3.12